sensor_id;sensor_type;location;lat;lon;timestamp;P1;durP1;ratioP1;P2;durP2;ratioP2
80799;SDS011;70202;52.238;10.680;2023-08-30T00:00:05;0.50;;;0.30;;
80799;SDS011;70202;52.238;10.680;2023-08-30T00:01:06;0.75;;;0.43;;
80799;SDS011;70202;52.238;10.680;2023-08-30T00:02:08;0.57;;;0.40;;
80799;SDS011;70202;52.238;10.680;2023-08-30T00:03:08;0.50;;;0.35;;
80799;SDS011;70202;52.238;10.680;2023-08-30T00:04:09;0.30;;;0.30;;
80799;SDS011;70202;52.238;10.680;2023-08-30T00:05:09;0.43;;;0.38;;
80799;SDS011;70202;52.238;10.680;2023-08-30T00:06:10;0.85;;;0.30;;
80799;SDS011;70202;52.238;10.680;2023-08-30T00:07:10;0.25;;;0.20;;
80799;SDS011;70202;52.238;10.680;2023-08-30T00:08:11;0.20;;;0.20;;
80799;SDS011;70202;52.238;10.680;2023-08-30T00:09:13;1.02;;;0.40;;
80799;SDS011;70202;52.238;10.680;2023-08-30T00:10:13;0.30;;;0.20;;
80799;SDS011;70202;52.238;10.680;2023-08-30T00:11:14;0.28;;;0.20;;
80799;SDS011;70202;52.238;10.680;2023-08-30T00:12:14;0.47;;;0.30;;
80799;SDS011;70202;52.238;10.680;2023-08-30T00:13:15;0.20;;;0.20;;
80799;SDS011;70202;52.238;10.680;2023-08-30T00:14:15;0.52;;;0.30;;
80799;SDS011;70202;52.238;10.680;2023-08-30T00:15:16;0.43;;;0.20;;
80799;SDS011;70202;52.238;10.680;2023-08-30T00:16:16;0.63;;;0.20;;
80799;SDS011;70202;52.238;10.680;2023-08-30T00:17:17;0.28;;;0.20;;
80799;SDS011;70202;52.238;10.680;2023-08-30T00:18:17;0.70;;;0.40;;
80799;SDS011;70202;52.238;10.680;2023-08-30T00:19:21;0.32;;;0.25;;
80799;SDS011;70202;52.238;10.680;2023-08-30T00:20:21;0.38;;;0.38;;
80799;SDS011;70202;52.238;10.680;2023-08-30T00:21:21;0.28;;;0.15;;
80799;SDS011;70202;52.238;10.680;2023-08-30T00:22:22;0.50;;;0.30;;
80799;SDS011;70202;52.238;10.680;2023-08-30T00:23:23;0.38;;;0.25;;
80799;SDS011;70202;52.238;10.680;2023-08-30T00:24:24;0.22;;;0.20;;
80799;SDS011;70202;52.238;10.680;2023-08-30T00:25:24;0.47;;;0.20;;
80799;SDS011;70202;52.238;10.680;2023-08-30T00:26:25;0.80;;;0.40;;
80799;SDS011;70202;52.238;10.680;2023-08-30T00:27:25;0.82;;;0.30;;
80799;SDS011;70202;52.238;10.680;2023-08-30T00:28:25;0.60;;;0.30;;
80799;SDS011;70202;52.238;10.680;2023-08-30T00:29:26;1.13;;;0.50;;
80799;SDS011;70202;52.238;10.680;2023-08-30T00:30:26;0.22;;;0.20;;
80799;SDS011;70202;52.238;10.680;2023-08-30T00:31:26;0.35;;;0.20;;
80799;SDS011;70202;52.238;10.680;2023-08-30T00:32:27;0.38;;;0.20;;
80799;SDS011;70202;52.238;10.680;2023-08-30T00:33:27;0.57;;;0.28;;
80799;SDS011;70202;52.238;10.680;2023-08-30T00:34:28;1.70;;;0.50;;
80799;SDS011;70202;52.238;10.680;2023-08-30T00:35:28;0.40;;;0.32;;
80799;SDS011;70202;52.238;10.680;2023-08-30T00:36:29;0.40;;;0.40;;
80799;SDS011;70202;52.238;10.680;2023-08-30T00:37:30;0.50;;;0.30;;
80799;SDS011;70202;52.238;10.680;2023-08-30T00:38:33;0.73;;;0.40;;
80799;SDS011;70202;52.238;10.680;2023-08-30T00:39:33;0.45;;;0.30;;
80799;SDS011;70202;52.238;10.680;2023-08-30T00:40:37;0.70;;;0.30;;
80799;SDS011;70202;52.238;10.680;2023-08-30T00:42:39;0.45;;;0.25;;
80799;SDS011;70202;52.238;10.680;2023-08-30T00:43:40;0.55;;;0.40;;
80799;SDS011;70202;52.238;10.680;2023-08-30T00:44:41;0.40;;;0.32;;
80799;SDS011;70202;52.238;10.680;2023-08-30T00:45:41;0.22;;;0.20;;
80799;SDS011;70202;52.238;10.680;2023-08-30T00:46:42;0.50;;;0.30;;
80799;SDS011;70202;52.238;10.680;2023-08-30T00:47:42;0.45;;;0.30;;
80799;SDS011;70202;52.238;10.680;2023-08-30T00:48:43;0.50;;;0.40;;
80799;SDS011;70202;52.238;10.680;2023-08-30T00:49:44;0.30;;;0.30;;
80799;SDS011;70202;52.238;10.680;2023-08-30T00:50:45;0.40;;;0.30;;
80799;SDS011;70202;52.238;10.680;2023-08-30T00:51:45;0.30;;;0.22;;
80799;SDS011;70202;52.238;10.680;2023-08-30T00:52:46;0.82;;;0.43;;
80799;SDS011;70202;52.238;10.680;2023-08-30T00:53:46;0.47;;;0.32;;
80799;SDS011;70202;52.238;10.680;2023-08-30T00:54:48;1.20;;;0.50;;
80799;SDS011;70202;52.238;10.680;2023-08-30T00:55:48;0.40;;;0.20;;
80799;SDS011;70202;52.238;10.680;2023-08-30T00:56:49;0.93;;;0.30;;
80799;SDS011;70202;52.238;10.680;2023-08-30T00:57:50;0.30;;;0.20;;
80799;SDS011;70202;52.238;10.680;2023-08-30T00:58:51;0.20;;;0.20;;
80799;SDS011;70202;52.238;10.680;2023-08-30T00:59:51;0.20;;;0.17;;
80799;SDS011;70202;52.238;10.680;2023-08-30T01:00:53;0.73;;;0.30;;
80799;SDS011;70202;52.238;10.680;2023-08-30T01:01:55;0.57;;;0.28;;
80799;SDS011;70202;52.238;10.680;2023-08-30T01:02:56;0.65;;;0.40;;
80799;SDS011;70202;52.238;10.680;2023-08-30T01:03:57;0.50;;;0.32;;
80799;SDS011;70202;52.238;10.680;2023-08-30T01:04:57;0.25;;;0.22;;
80799;SDS011;70202;52.238;10.680;2023-08-30T01:05:58;0.50;;;0.38;;
80799;SDS011;70202;52.238;10.680;2023-08-30T01:06:59;0.38;;;0.30;;
80799;SDS011;70202;52.238;10.680;2023-08-30T01:07:59;1.30;;;0.50;;
80799;SDS011;70202;52.238;10.680;2023-08-30T01:09:00;0.32;;;0.30;;
80799;SDS011;70202;52.238;10.680;2023-08-30T01:10:01;0.60;;;0.38;;
80799;SDS011;70202;52.238;10.680;2023-08-30T01:11:08;0.60;;;0.30;;
80799;SDS011;70202;52.238;10.680;2023-08-30T01:12:25;0.57;;;0.40;;
80799;SDS011;70202;52.238;10.680;2023-08-30T01:13:38;0.60;;;0.40;;
80799;SDS011;70202;52.238;10.680;2023-08-30T01:14:56;0.70;;;0.35;;
80799;SDS011;70202;52.238;10.680;2023-08-30T01:16:01;0.43;;;0.28;;
80799;SDS011;70202;52.238;10.680;2023-08-30T01:17:04;0.57;;;0.40;;
80799;SDS011;70202;52.238;10.680;2023-08-30T01:18:05;0.40;;;0.30;;
80799;SDS011;70202;52.238;10.680;2023-08-30T01:20:45;0.68;;;0.50;;
80799;SDS011;70202;52.238;10.680;2023-08-30T01:24:32;0.93;;;0.43;;
80799;SDS011;70202;52.238;10.680;2023-08-30T01:25:49;0.88;;;0.47;;
80799;SDS011;70202;52.238;10.680;2023-08-30T01:28:09;0.63;;;0.30;;
80799;SDS011;70202;52.238;10.680;2023-08-30T01:29:11;0.85;;;0.43;;
80799;SDS011;70202;52.238;10.680;2023-08-30T01:30:14;0.35;;;0.30;;
80799;SDS011;70202;52.238;10.680;2023-08-30T01:31:16;1.45;;;0.60;;
80799;SDS011;70202;52.238;10.680;2023-08-30T01:32:18;0.50;;;0.40;;
80799;SDS011;70202;52.238;10.680;2023-08-30T01:33:20;0.40;;;0.40;;
80799;SDS011;70202;52.238;10.680;2023-08-30T01:34:21;0.47;;;0.43;;
80799;SDS011;70202;52.238;10.680;2023-08-30T01:35:22;0.47;;;0.45;;
80799;SDS011;70202;52.238;10.680;2023-08-30T01:36:24;0.98;;;0.52;;
80799;SDS011;70202;52.238;10.680;2023-08-30T01:37:25;0.25;;;0.25;;
80799;SDS011;70202;52.238;10.680;2023-08-30T01:38:27;0.57;;;0.52;;
80799;SDS011;70202;52.238;10.680;2023-08-30T01:39:29;1.02;;;0.60;;
80799;SDS011;70202;52.238;10.680;2023-08-30T01:40:33;0.80;;;0.60;;
80799;SDS011;70202;52.238;10.680;2023-08-30T01:41:39;0.43;;;0.40;;
80799;SDS011;70202;52.238;10.680;2023-08-30T01:42:40;1.02;;;0.68;;
80799;SDS011;70202;52.238;10.680;2023-08-30T01:43:41;0.90;;;0.57;;
80799;SDS011;70202;52.238;10.680;2023-08-30T01:44:42;0.77;;;0.50;;
80799;SDS011;70202;52.238;10.680;2023-08-30T01:45:44;0.65;;;0.40;;
80799;SDS011;70202;52.238;10.680;2023-08-30T01:46:45;1.02;;;0.73;;
80799;SDS011;70202;52.238;10.680;2023-08-30T01:47:46;0.82;;;0.50;;
80799;SDS011;70202;52.238;10.680;2023-08-30T01:48:48;1.63;;;0.68;;
80799;SDS011;70202;52.238;10.680;2023-08-30T01:49:49;0.47;;;0.30;;
80799;SDS011;70202;52.238;10.680;2023-08-30T01:50:50;0.60;;;0.50;;
80799;SDS011;70202;52.238;10.680;2023-08-30T01:51:51;0.60;;;0.50;;
80799;SDS011;70202;52.238;10.680;2023-08-30T01:52:52;0.60;;;0.50;;
80799;SDS011;70202;52.238;10.680;2023-08-30T01:53:53;1.33;;;0.60;;
80799;SDS011;70202;52.238;10.680;2023-08-30T01:54:55;0.57;;;0.40;;
80799;SDS011;70202;52.238;10.680;2023-08-30T01:55:57;0.40;;;0.40;;
80799;SDS011;70202;52.238;10.680;2023-08-30T01:56:57;1.00;;;0.50;;
80799;SDS011;70202;52.238;10.680;2023-08-30T01:57:58;0.85;;;0.50;;
80799;SDS011;70202;52.238;10.680;2023-08-30T01:58:58;0.70;;;0.50;;
80799;SDS011;70202;52.238;10.680;2023-08-30T01:59:59;0.55;;;0.50;;
80799;SDS011;70202;52.238;10.680;2023-08-30T02:00:59;1.00;;;0.60;;
80799;SDS011;70202;52.238;10.680;2023-08-30T02:02:00;1.13;;;0.60;;
80799;SDS011;70202;52.238;10.680;2023-08-30T02:03:06;0.43;;;0.40;;
80799;SDS011;70202;52.238;10.680;2023-08-30T02:04:10;0.28;;;0.28;;
80799;SDS011;70202;52.238;10.680;2023-08-30T02:05:10;0.65;;;0.50;;
80799;SDS011;70202;52.238;10.680;2023-08-30T02:06:17;0.65;;;0.50;;
80799;SDS011;70202;52.238;10.680;2023-08-30T02:07:37;0.47;;;0.30;;
80799;SDS011;70202;52.238;10.680;2023-08-30T02:08:46;0.70;;;0.50;;
80799;SDS011;70202;52.238;10.680;2023-08-30T02:11:02;0.35;;;0.35;;
80799;SDS011;70202;52.238;10.680;2023-08-30T02:12:08;0.80;;;0.45;;
80799;SDS011;70202;52.238;10.680;2023-08-30T02:13:12;0.77;;;0.60;;
80799;SDS011;70202;52.238;10.680;2023-08-30T02:14:13;0.30;;;0.30;;
80799;SDS011;70202;52.238;10.680;2023-08-30T02:15:18;0.55;;;0.47;;
80799;SDS011;70202;52.238;10.680;2023-08-30T02:16:20;0.50;;;0.50;;
80799;SDS011;70202;52.238;10.680;2023-08-30T02:17:22;0.85;;;0.50;;
80799;SDS011;70202;52.238;10.680;2023-08-30T02:18:24;0.98;;;0.60;;
80799;SDS011;70202;52.238;10.680;2023-08-30T02:19:25;0.63;;;0.50;;
80799;SDS011;70202;52.238;10.680;2023-08-30T02:20:26;0.70;;;0.50;;
80799;SDS011;70202;52.238;10.680;2023-08-30T02:21:27;0.82;;;0.57;;
80799;SDS011;70202;52.238;10.680;2023-08-30T02:22:27;0.70;;;0.50;;
80799;SDS011;70202;52.238;10.680;2023-08-30T02:23:30;1.45;;;0.70;;
80799;SDS011;70202;52.238;10.680;2023-08-30T02:24:31;1.33;;;0.70;;
80799;SDS011;70202;52.238;10.680;2023-08-30T02:25:31;0.63;;;0.47;;
80799;SDS011;70202;52.238;10.680;2023-08-30T02:26:31;0.47;;;0.47;;
80799;SDS011;70202;52.238;10.680;2023-08-30T02:27:32;0.82;;;0.60;;
80799;SDS011;70202;52.238;10.680;2023-08-30T02:28:33;0.85;;;0.63;;
80799;SDS011;70202;52.238;10.680;2023-08-30T02:29:34;0.85;;;0.60;;
80799;SDS011;70202;52.238;10.680;2023-08-30T02:30:34;0.82;;;0.57;;
80799;SDS011;70202;52.238;10.680;2023-08-30T02:31:35;0.50;;;0.50;;
80799;SDS011;70202;52.238;10.680;2023-08-30T02:32:35;1.92;;;0.80;;
80799;SDS011;70202;52.238;10.680;2023-08-30T02:33:35;1.17;;;0.80;;
80799;SDS011;70202;52.238;10.680;2023-08-30T02:34:37;0.98;;;0.65;;
80799;SDS011;70202;52.238;10.680;2023-08-30T02:35:37;0.85;;;0.68;;
80799;SDS011;70202;52.238;10.680;2023-08-30T02:36:38;1.02;;;0.70;;
80799;SDS011;70202;52.238;10.680;2023-08-30T02:37:38;0.75;;;0.65;;
80799;SDS011;70202;52.238;10.680;2023-08-30T02:38:40;1.33;;;0.80;;
80799;SDS011;70202;52.238;10.680;2023-08-30T02:39:40;0.90;;;0.70;;
80799;SDS011;70202;52.238;10.680;2023-08-30T02:40:40;0.68;;;0.60;;
80799;SDS011;70202;52.238;10.680;2023-08-30T02:41:41;1.10;;;0.70;;
80799;SDS011;70202;52.238;10.680;2023-08-30T02:42:41;0.75;;;0.57;;
80799;SDS011;70202;52.238;10.680;2023-08-30T02:43:42;0.75;;;0.70;;
80799;SDS011;70202;52.238;10.680;2023-08-30T02:44:42;0.68;;;0.60;;
80799;SDS011;70202;52.238;10.680;2023-08-30T02:45:42;1.40;;;0.90;;
80799;SDS011;70202;52.238;10.680;2023-08-30T02:46:43;0.90;;;0.70;;
80799;SDS011;70202;52.238;10.680;2023-08-30T02:47:44;1.30;;;0.70;;
80799;SDS011;70202;52.238;10.680;2023-08-30T02:48:44;1.02;;;0.73;;
80799;SDS011;70202;52.238;10.680;2023-08-30T02:49:45;0.93;;;0.60;;
80799;SDS011;70202;52.238;10.680;2023-08-30T02:50:45;1.65;;;0.90;;
80799;SDS011;70202;52.238;10.680;2023-08-30T02:51:46;0.88;;;0.77;;
80799;SDS011;70202;52.238;10.680;2023-08-30T02:52:46;1.83;;;0.80;;
80799;SDS011;70202;52.238;10.680;2023-08-30T02:53:46;1.15;;;0.90;;
80799;SDS011;70202;52.238;10.680;2023-08-30T02:54:47;1.27;;;0.80;;
80799;SDS011;70202;52.238;10.680;2023-08-30T02:55:47;0.98;;;0.70;;
80799;SDS011;70202;52.238;10.680;2023-08-30T02:56:48;1.30;;;0.70;;
80799;SDS011;70202;52.238;10.680;2023-08-30T02:57:49;0.65;;;0.55;;
80799;SDS011;70202;52.238;10.680;2023-08-30T02:58:49;0.93;;;0.80;;
80799;SDS011;70202;52.238;10.680;2023-08-30T02:59:49;1.20;;;0.70;;
80799;SDS011;70202;52.238;10.680;2023-08-30T03:00:50;1.50;;;0.70;;
80799;SDS011;70202;52.238;10.680;2023-08-30T03:01:50;1.35;;;0.80;;
80799;SDS011;70202;52.238;10.680;2023-08-30T03:02:51;1.02;;;0.80;;
80799;SDS011;70202;52.238;10.680;2023-08-30T03:03:51;0.60;;;0.50;;
80799;SDS011;70202;52.238;10.680;2023-08-30T03:04:52;0.98;;;0.65;;
80799;SDS011;70202;52.238;10.680;2023-08-30T03:05:52;1.20;;;0.75;;
80799;SDS011;70202;52.238;10.680;2023-08-30T03:06:52;1.58;;;0.90;;
80799;SDS011;70202;52.238;10.680;2023-08-30T03:07:53;0.88;;;0.68;;
80799;SDS011;70202;52.238;10.680;2023-08-30T03:08:53;1.20;;;0.80;;
80799;SDS011;70202;52.238;10.680;2023-08-30T03:09:54;1.08;;;0.75;;
80799;SDS011;70202;52.238;10.680;2023-08-30T03:10:54;1.40;;;0.80;;
80799;SDS011;70202;52.238;10.680;2023-08-30T03:11:55;1.50;;;0.82;;
80799;SDS011;70202;52.238;10.680;2023-08-30T03:12:55;1.00;;;0.73;;
80799;SDS011;70202;52.238;10.680;2023-08-30T03:13:56;1.60;;;0.88;;
80799;SDS011;70202;52.238;10.680;2023-08-30T03:14:56;1.65;;;0.90;;
80799;SDS011;70202;52.238;10.680;2023-08-30T03:15:57;0.52;;;0.52;;
80799;SDS011;70202;52.238;10.680;2023-08-30T03:16:57;1.30;;;0.90;;
80799;SDS011;70202;52.238;10.680;2023-08-30T03:17:57;1.00;;;0.70;;
80799;SDS011;70202;52.238;10.680;2023-08-30T03:18:58;0.90;;;0.50;;
80799;SDS011;70202;52.238;10.680;2023-08-30T03:19:58;1.48;;;0.85;;
80799;SDS011;70202;52.238;10.680;2023-08-30T03:21:00;1.02;;;0.70;;
80799;SDS011;70202;52.238;10.680;2023-08-30T03:22:01;1.25;;;0.70;;
80799;SDS011;70202;52.238;10.680;2023-08-30T03:23:02;1.48;;;0.82;;
80799;SDS011;70202;52.238;10.680;2023-08-30T03:24:02;1.77;;;0.80;;
80799;SDS011;70202;52.238;10.680;2023-08-30T03:25:03;2.10;;;0.80;;
80799;SDS011;70202;52.238;10.680;2023-08-30T03:26:10;1.73;;;0.80;;
80799;SDS011;70202;52.238;10.680;2023-08-30T03:27:11;1.10;;;0.80;;
80799;SDS011;70202;52.238;10.680;2023-08-30T03:28:12;1.40;;;0.80;;
80799;SDS011;70202;52.238;10.680;2023-08-30T03:29:13;1.27;;;0.93;;
80799;SDS011;70202;52.238;10.680;2023-08-30T03:30:13;0.88;;;0.60;;
80799;SDS011;70202;52.238;10.680;2023-08-30T03:31:17;1.20;;;0.80;;
80799;SDS011;70202;52.238;10.680;2023-08-30T03:32:19;0.73;;;0.65;;
80799;SDS011;70202;52.238;10.680;2023-08-30T03:33:20;0.85;;;0.57;;
80799;SDS011;70202;52.238;10.680;2023-08-30T03:34:20;1.60;;;0.80;;
80799;SDS011;70202;52.238;10.680;2023-08-30T03:35:20;1.13;;;0.77;;
80799;SDS011;70202;52.238;10.680;2023-08-30T03:36:21;1.60;;;0.95;;
80799;SDS011;70202;52.238;10.680;2023-08-30T03:37:22;1.45;;;0.80;;
80799;SDS011;70202;52.238;10.680;2023-08-30T03:38:22;1.95;;;0.88;;
80799;SDS011;70202;52.238;10.680;2023-08-30T03:39:23;1.50;;;0.82;;
80799;SDS011;70202;52.238;10.680;2023-08-30T03:40:24;1.40;;;0.80;;
80799;SDS011;70202;52.238;10.680;2023-08-30T03:41:24;1.45;;;0.80;;
80799;SDS011;70202;52.238;10.680;2023-08-30T03:42:25;1.38;;;0.90;;
80799;SDS011;70202;52.238;10.680;2023-08-30T03:43:25;1.30;;;0.77;;
80799;SDS011;70202;52.238;10.680;2023-08-30T03:44:26;1.70;;;0.80;;
80799;SDS011;70202;52.238;10.680;2023-08-30T03:45:26;1.52;;;0.90;;
80799;SDS011;70202;52.238;10.680;2023-08-30T03:46:26;1.45;;;0.80;;
80799;SDS011;70202;52.238;10.680;2023-08-30T03:47:27;1.05;;;0.75;;
80799;SDS011;70202;52.238;10.680;2023-08-30T03:48:27;1.45;;;0.80;;
80799;SDS011;70202;52.238;10.680;2023-08-30T03:49:27;1.75;;;0.90;;
80799;SDS011;70202;52.238;10.680;2023-08-30T03:50:29;1.80;;;0.80;;
80799;SDS011;70202;52.238;10.680;2023-08-30T03:51:30;1.42;;;0.75;;
80799;SDS011;70202;52.238;10.680;2023-08-30T03:52:30;1.20;;;0.80;;
80799;SDS011;70202;52.238;10.680;2023-08-30T03:53:30;1.73;;;0.90;;
80799;SDS011;70202;52.238;10.680;2023-08-30T03:54:31;1.95;;;1.00;;
80799;SDS011;70202;52.238;10.680;2023-08-30T03:55:32;1.63;;;0.90;;
80799;SDS011;70202;52.238;10.680;2023-08-30T03:56:34;2.55;;;0.98;;
80799;SDS011;70202;52.238;10.680;2023-08-30T03:57:34;1.17;;;0.70;;
80799;SDS011;70202;52.238;10.680;2023-08-30T03:58:34;1.02;;;0.80;;
80799;SDS011;70202;52.238;10.680;2023-08-30T03:59:35;1.42;;;0.82;;
80799;SDS011;70202;52.238;10.680;2023-08-30T04:00:36;1.45;;;0.73;;
80799;SDS011;70202;52.238;10.680;2023-08-30T04:01:37;1.85;;;0.90;;
80799;SDS011;70202;52.238;10.680;2023-08-30T04:02:37;1.33;;;0.80;;
80799;SDS011;70202;52.238;10.680;2023-08-30T04:03:38;1.60;;;0.90;;
80799;SDS011;70202;52.238;10.680;2023-08-30T04:04:38;1.20;;;0.80;;
80799;SDS011;70202;52.238;10.680;2023-08-30T04:05:38;1.67;;;0.85;;
80799;SDS011;70202;52.238;10.680;2023-08-30T04:06:39;1.35;;;0.95;;
80799;SDS011;70202;52.238;10.680;2023-08-30T04:07:40;1.90;;;0.80;;
80799;SDS011;70202;52.238;10.680;2023-08-30T04:08:40;1.63;;;0.73;;
80799;SDS011;70202;52.238;10.680;2023-08-30T04:09:41;1.92;;;0.90;;
80799;SDS011;70202;52.238;10.680;2023-08-30T04:10:41;1.70;;;0.85;;
80799;SDS011;70202;52.238;10.680;2023-08-30T04:11:43;1.67;;;0.80;;
80799;SDS011;70202;52.238;10.680;2023-08-30T04:12:43;1.10;;;0.75;;
80799;SDS011;70202;52.238;10.680;2023-08-30T04:13:44;1.30;;;0.75;;
80799;SDS011;70202;52.238;10.680;2023-08-30T04:14:44;1.30;;;0.73;;
80799;SDS011;70202;52.238;10.680;2023-08-30T04:15:44;1.77;;;0.85;;
80799;SDS011;70202;52.238;10.680;2023-08-30T04:16:45;1.55;;;0.80;;
80799;SDS011;70202;52.238;10.680;2023-08-30T04:17:45;1.52;;;0.80;;
80799;SDS011;70202;52.238;10.680;2023-08-30T04:18:46;1.65;;;0.90;;
80799;SDS011;70202;52.238;10.680;2023-08-30T04:19:46;1.17;;;0.80;;
80799;SDS011;70202;52.238;10.680;2023-08-30T04:20:47;1.42;;;0.90;;
80799;SDS011;70202;52.238;10.680;2023-08-30T04:21:47;1.20;;;0.80;;
80799;SDS011;70202;52.238;10.680;2023-08-30T04:22:48;1.48;;;0.70;;
80799;SDS011;70202;52.238;10.680;2023-08-30T04:23:48;1.05;;;0.60;;
80799;SDS011;70202;52.238;10.680;2023-08-30T04:24:48;1.98;;;1.00;;
80799;SDS011;70202;52.238;10.680;2023-08-30T04:25:49;1.40;;;0.90;;
80799;SDS011;70202;52.238;10.680;2023-08-30T04:26:49;1.25;;;0.75;;
80799;SDS011;70202;52.238;10.680;2023-08-30T04:27:52;1.15;;;0.90;;
80799;SDS011;70202;52.238;10.680;2023-08-30T04:28:53;2.20;;;0.95;;
80799;SDS011;70202;52.238;10.680;2023-08-30T04:29:53;1.70;;;0.90;;
80799;SDS011;70202;52.238;10.680;2023-08-30T04:30:54;1.35;;;0.73;;
80799;SDS011;70202;52.238;10.680;2023-08-30T04:31:55;1.52;;;0.90;;
80799;SDS011;70202;52.238;10.680;2023-08-30T04:32:56;1.13;;;0.75;;
80799;SDS011;70202;52.238;10.680;2023-08-30T04:33:56;1.38;;;0.80;;
80799;SDS011;70202;52.238;10.680;2023-08-30T04:34:56;1.75;;;0.90;;
80799;SDS011;70202;52.238;10.680;2023-08-30T04:35:57;0.95;;;0.70;;
80799;SDS011;70202;52.238;10.680;2023-08-30T04:36:57;1.50;;;0.80;;
80799;SDS011;70202;52.238;10.680;2023-08-30T04:37:58;2.20;;;1.05;;
80799;SDS011;70202;52.238;10.680;2023-08-30T04:38:59;2.22;;;1.05;;
80799;SDS011;70202;52.238;10.680;2023-08-30T04:40:00;1.65;;;0.82;;
80799;SDS011;70202;52.238;10.680;2023-08-30T04:41:00;2.63;;;1.02;;
80799;SDS011;70202;52.238;10.680;2023-08-30T04:42:00;1.63;;;0.88;;
80799;SDS011;70202;52.238;10.680;2023-08-30T04:43:02;2.15;;;1.00;;
80799;SDS011;70202;52.238;10.680;2023-08-30T04:44:03;1.52;;;0.85;;
80799;SDS011;70202;52.238;10.680;2023-08-30T04:45:03;1.75;;;1.05;;
80799;SDS011;70202;52.238;10.680;2023-08-30T04:46:04;1.55;;;0.80;;
80799;SDS011;70202;52.238;10.680;2023-08-30T04:47:04;1.55;;;0.75;;
80799;SDS011;70202;52.238;10.680;2023-08-30T04:48:05;1.52;;;0.98;;
80799;SDS011;70202;52.238;10.680;2023-08-30T04:49:06;2.65;;;1.02;;
80799;SDS011;70202;52.238;10.680;2023-08-30T04:50:06;1.92;;;1.10;;
80799;SDS011;70202;52.238;10.680;2023-08-30T04:51:07;1.45;;;0.90;;
80799;SDS011;70202;52.238;10.680;2023-08-30T04:52:07;1.92;;;1.00;;
80799;SDS011;70202;52.238;10.680;2023-08-30T04:53:07;1.20;;;0.73;;
80799;SDS011;70202;52.238;10.680;2023-08-30T04:54:08;1.75;;;0.90;;
80799;SDS011;70202;52.238;10.680;2023-08-30T04:55:08;1.67;;;0.90;;
80799;SDS011;70202;52.238;10.680;2023-08-30T04:56:12;1.45;;;0.85;;
80799;SDS011;70202;52.238;10.680;2023-08-30T04:57:13;1.52;;;0.80;;
80799;SDS011;70202;52.238;10.680;2023-08-30T04:58:16;2.15;;;0.90;;
80799;SDS011;70202;52.238;10.680;2023-08-30T04:59:16;1.92;;;0.90;;
80799;SDS011;70202;52.238;10.680;2023-08-30T05:00:17;1.40;;;0.95;;
80799;SDS011;70202;52.238;10.680;2023-08-30T05:01:19;1.80;;;0.93;;
80799;SDS011;70202;52.238;10.680;2023-08-30T05:02:19;1.70;;;1.00;;
80799;SDS011;70202;52.238;10.680;2023-08-30T05:03:19;1.45;;;0.73;;
80799;SDS011;70202;52.238;10.680;2023-08-30T05:04:20;1.45;;;0.75;;
80799;SDS011;70202;52.238;10.680;2023-08-30T05:05:20;1.90;;;0.90;;
80799;SDS011;70202;52.238;10.680;2023-08-30T05:06:20;1.77;;;0.90;;
80799;SDS011;70202;52.238;10.680;2023-08-30T05:07:21;1.83;;;0.90;;
80799;SDS011;70202;52.238;10.680;2023-08-30T05:08:21;1.15;;;0.85;;
80799;SDS011;70202;52.238;10.680;2023-08-30T05:09:21;2.25;;;0.90;;
80799;SDS011;70202;52.238;10.680;2023-08-30T05:10:24;1.73;;;0.93;;
80799;SDS011;70202;52.238;10.680;2023-08-30T05:11:25;1.90;;;1.00;;
80799;SDS011;70202;52.238;10.680;2023-08-30T05:12:25;2.85;;;1.10;;
80799;SDS011;70202;52.238;10.680;2023-08-30T05:13:26;1.80;;;0.80;;
80799;SDS011;70202;52.238;10.680;2023-08-30T05:14:26;2.30;;;1.10;;
80799;SDS011;70202;52.238;10.680;2023-08-30T05:15:26;1.80;;;1.02;;
80799;SDS011;70202;52.238;10.680;2023-08-30T05:16:27;0.90;;;0.70;;
80799;SDS011;70202;52.238;10.680;2023-08-30T05:17:27;1.55;;;0.90;;
80799;SDS011;70202;52.238;10.680;2023-08-30T05:18:30;1.73;;;0.93;;
80799;SDS011;70202;52.238;10.680;2023-08-30T05:19:31;1.50;;;0.88;;
80799;SDS011;70202;52.238;10.680;2023-08-30T05:20:31;0.88;;;0.70;;
80799;SDS011;70202;52.238;10.680;2023-08-30T05:21:31;1.15;;;0.73;;
80799;SDS011;70202;52.238;10.680;2023-08-30T05:22:32;1.70;;;0.95;;
80799;SDS011;70202;52.238;10.680;2023-08-30T05:23:32;1.55;;;0.85;;
80799;SDS011;70202;52.238;10.680;2023-08-30T05:24:33;1.13;;;0.80;;
80799;SDS011;70202;52.238;10.680;2023-08-30T05:25:33;1.98;;;0.93;;
80799;SDS011;70202;52.238;10.680;2023-08-30T05:26:34;1.48;;;0.90;;
80799;SDS011;70202;52.238;10.680;2023-08-30T05:27:34;1.42;;;0.90;;
80799;SDS011;70202;52.238;10.680;2023-08-30T05:28:35;0.93;;;0.60;;
80799;SDS011;70202;52.238;10.680;2023-08-30T05:29:35;1.77;;;1.00;;
80799;SDS011;70202;52.238;10.680;2023-08-30T05:30:36;1.20;;;0.70;;
80799;SDS011;70202;52.238;10.680;2023-08-30T05:31:37;1.52;;;0.85;;
80799;SDS011;70202;52.238;10.680;2023-08-30T05:32:38;1.60;;;0.90;;
80799;SDS011;70202;52.238;10.680;2023-08-30T05:33:38;1.45;;;0.70;;
80799;SDS011;70202;52.238;10.680;2023-08-30T05:34:38;2.15;;;0.82;;
80799;SDS011;70202;52.238;10.680;2023-08-30T05:35:39;1.25;;;0.88;;
80799;SDS011;70202;52.238;10.680;2023-08-30T05:36:39;1.50;;;0.77;;
80799;SDS011;70202;52.238;10.680;2023-08-30T05:37:39;1.73;;;0.88;;
80799;SDS011;70202;52.238;10.680;2023-08-30T05:38:40;1.85;;;0.93;;
80799;SDS011;70202;52.238;10.680;2023-08-30T05:39:41;1.42;;;0.70;;
80799;SDS011;70202;52.238;10.680;2023-08-30T05:40:42;2.30;;;0.90;;
80799;SDS011;70202;52.238;10.680;2023-08-30T05:41:44;1.20;;;0.60;;
80799;SDS011;70202;52.238;10.680;2023-08-30T05:42:45;2.35;;;1.30;;
80799;SDS011;70202;52.238;10.680;2023-08-30T05:43:45;1.38;;;0.70;;
80799;SDS011;70202;52.238;10.680;2023-08-30T05:44:45;1.27;;;0.80;;
80799;SDS011;70202;52.238;10.680;2023-08-30T05:45:46;1.88;;;0.98;;
80799;SDS011;70202;52.238;10.680;2023-08-30T05:46:47;1.65;;;0.85;;
80799;SDS011;70202;52.238;10.680;2023-08-30T05:47:48;2.17;;;0.88;;
80799;SDS011;70202;52.238;10.680;2023-08-30T05:48:48;1.52;;;1.00;;
80799;SDS011;70202;52.238;10.680;2023-08-30T05:49:48;1.50;;;0.80;;
80799;SDS011;70202;52.238;10.680;2023-08-30T05:50:49;1.85;;;0.90;;
80799;SDS011;70202;52.238;10.680;2023-08-30T05:51:49;1.45;;;0.80;;
80799;SDS011;70202;52.238;10.680;2023-08-30T05:52:49;2.13;;;1.05;;
80799;SDS011;70202;52.238;10.680;2023-08-30T05:53:51;0.85;;;0.70;;
80799;SDS011;70202;52.238;10.680;2023-08-30T05:54:51;1.35;;;0.90;;
80799;SDS011;70202;52.238;10.680;2023-08-30T05:55:52;1.65;;;0.90;;
80799;SDS011;70202;52.238;10.680;2023-08-30T05:56:52;1.55;;;0.90;;
80799;SDS011;70202;52.238;10.680;2023-08-30T05:57:53;1.27;;;0.80;;
80799;SDS011;70202;52.238;10.680;2023-08-30T05:58:53;0.73;;;0.70;;
80799;SDS011;70202;52.238;10.680;2023-08-30T05:59:53;1.00;;;0.70;;
80799;SDS011;70202;52.238;10.680;2023-08-30T06:00:54;0.95;;;0.70;;
80799;SDS011;70202;52.238;10.680;2023-08-30T06:01:54;1.10;;;0.75;;
80799;SDS011;70202;52.238;10.680;2023-08-30T06:02:55;1.35;;;0.77;;
80799;SDS011;70202;52.238;10.680;2023-08-30T06:03:55;1.58;;;0.88;;
80799;SDS011;70202;52.238;10.680;2023-08-30T06:04:55;1.42;;;0.90;;
80799;SDS011;70202;52.238;10.680;2023-08-30T06:05:56;0.90;;;0.70;;
80799;SDS011;70202;52.238;10.680;2023-08-30T06:06:56;1.88;;;1.00;;
80799;SDS011;70202;52.238;10.680;2023-08-30T06:07:57;1.67;;;1.05;;
80799;SDS011;70202;52.238;10.680;2023-08-30T06:08:57;1.50;;;0.90;;
80799;SDS011;70202;52.238;10.680;2023-08-30T06:09:58;1.83;;;0.88;;